createdAt,value
2019-05-20T00:00:46.424Z,1.40
2019-05-20T00:03:48.535Z,1.50
2019-05-20T00:06:40.237Z,1.33
2019-05-20T00:09:41.087Z,1.20
2019-05-20T00:12:34.920Z,1.20
2019-05-20T00:15:39.836Z,1.20
2019-05-20T00:18:34.147Z,1.13
2019-05-20T00:21:48.818Z,1.40
2019-05-20T00:24:37.180Z,1.27
2019-05-20T00:27:35.293Z,1.43
2019-05-20T00:30:23.901Z,1.20
2019-05-20T00:33:21.317Z,1.50
2019-05-20T00:36:19.158Z,1.17
2019-05-20T00:39:48.589Z,1.27
2019-05-20T00:42:27.475Z,1.10
2019-05-20T00:45:25.618Z,1.27
2019-05-20T00:48:23.867Z,1.43
2019-05-20T00:51:31.866Z,1.30
2019-05-20T00:54:31.086Z,1.30
2019-05-20T00:57:36.277Z,1.33
2019-05-20T01:00:24.991Z,1.13
2019-05-20T01:03:31.188Z,1.20
2019-05-20T01:06:15.542Z,1.20
2019-05-20T01:09:21.350Z,0.97
2019-05-20T01:12:21.646Z,1.07
2019-05-20T01:15:15.703Z,1.10
2019-05-20T01:18:13.326Z,1.23
2019-05-20T01:21:18.685Z,1.33
2019-05-20T01:24:09.506Z,1.03
2019-05-20T01:27:07.766Z,1.30
2019-05-20T01:29:57.934Z,1.17
2019-05-20T01:33:10.929Z,1.10
2019-05-20T01:35:55.099Z,1.33
2019-05-20T01:38:53.254Z,1.30
2019-05-20T01:41:55.259Z,1.17
2019-05-20T01:44:55.998Z,1.30
2019-05-20T01:48:01.352Z,1.03
2019-05-20T01:51:00.977Z,1.00
2019-05-20T01:54:04.415Z,1.40
2019-05-20T01:59:47.362Z,1.30
2019-05-20T02:02:49.717Z,1.10
2019-05-20T02:05:38.479Z,1.30
2019-05-20T02:08:34.174Z,1.10
2019-05-20T02:11:22.706Z,1.10
2019-05-20T02:14:23.389Z,1.30
2019-05-20T02:17:24.796Z,1.20
2019-05-20T02:20:25.758Z,1.50
2019-05-20T02:23:16.315Z,1.27
2019-05-20T02:26:21.012Z,1.17
2019-05-20T02:29:09.246Z,1.30
2019-05-20T02:32:07.065Z,1.40
2019-05-20T02:35:04.014Z,1.23
2019-05-20T02:38:12.049Z,1.30
2019-05-20T02:41:03.476Z,1.10
2019-05-20T02:44:10.001Z,1.23
2019-05-20T02:47:00.045Z,1.30
2019-05-20T02:50:07.094Z,1.30
2019-05-20T02:52:59.446Z,1.10
2019-05-20T02:56:07.857Z,1.17
2019-05-20T02:59:00.990Z,1.27
2019-05-20T03:02:04.642Z,1.20
2019-05-20T03:04:55.700Z,1.23
2019-05-20T03:08:01.875Z,1.13
2019-05-20T03:10:51.660Z,1.27
2019-05-20T03:13:55.236Z,1.20
2019-05-20T03:16:47.096Z,1.50
2019-05-20T03:19:52.513Z,1.20
2019-05-20T03:22:51.348Z,1.23
2019-05-20T03:25:54.721Z,1.27
2019-05-20T03:32:00.189Z,1.37
2019-05-20T03:34:59.365Z,1.30
2019-05-20T03:37:52.698Z,1.30
2019-05-20T03:40:51.458Z,1.50
2019-05-20T03:43:50.553Z,1.40
2019-05-20T03:46:42.110Z,1.13
2019-05-20T03:49:37.904Z,1.23
2019-05-20T03:52:33.284Z,0.90
2019-05-20T03:55:28.065Z,1.60
2019-05-20T03:58:18.570Z,1.30
2019-05-20T04:01:19.857Z,0.97
2019-05-20T04:04:11.102Z,1.30
2019-05-20T04:07:04.630Z,1.10
2019-05-20T04:09:53.807Z,1.40
2019-05-20T04:12:56.354Z,1.00
2019-05-20T04:19:20.371Z,1.37
2019-05-20T04:25:31.072Z,1.40
2019-05-20T04:28:19.143Z,1.00
2019-05-20T04:31:29.613Z,1.57
2019-05-20T04:34:17.772Z,1.30
2019-05-20T04:40:18.090Z,1.23
2019-05-20T04:43:12.457Z,1.10
2019-05-20T04:46:02.792Z,1.40
2019-05-20T04:49:02.354Z,1.57
2019-05-20T04:51:52.903Z,1.27
2019-05-20T04:54:55.354Z,1.23
2019-05-20T04:57:48.691Z,1.50
2019-05-20T05:01:08.029Z,1.53
2019-05-20T05:04:11.249Z,1.13
2019-05-20T05:07:09.840Z,1.30
2019-05-20T05:13:18.350Z,1.40
2019-05-20T05:16:08.607Z,1.30
2019-05-20T05:19:04.246Z,1.30
2019-05-20T05:22:05.745Z,1.23
2019-05-20T05:25:03.331Z,1.10
2019-05-20T05:28:00.783Z,1.20
2019-05-20T05:30:57.307Z,1.20
2019-05-20T05:40:41.476Z,1.50
2019-05-20T05:43:45.982Z,1.33
2019-05-20T05:46:47.112Z,1.23
2019-05-20T05:49:42.276Z,1.40
2019-05-20T05:52:28.071Z,1.17
2019-05-20T05:55:27.134Z,1.03
2019-05-20T05:58:18.513Z,1.20
2019-05-20T06:01:19.358Z,0.90
2019-05-20T06:04:20.434Z,1.17
2019-05-20T06:10:31.130Z,1.30
2019-05-20T06:13:31.470Z,1.37
2019-05-20T06:16:37.026Z,1.20
2019-05-20T06:19:24.692Z,1.30
2019-05-20T06:22:14.373Z,1.03
2019-05-20T06:25:13.595Z,1.10
2019-05-20T06:28:09.737Z,1.00
2019-05-20T06:31:22.545Z,1.00
2019-05-20T06:34:15.835Z,1.00
2019-05-20T06:37:22.594Z,1.30
2019-05-20T06:40:14.235Z,0.97
2019-05-20T06:43:07.651Z,1.10
2019-05-20T06:46:01.751Z,1.10
2019-05-20T06:48:56.534Z,1.10
2019-05-20T06:51:46.617Z,1.20
2019-05-20T06:54:45.316Z,1.20
2019-05-20T06:57:32.965Z,1.00
2019-05-20T07:00:40.046Z,1.23
2019-05-20T07:03:28.762Z,1.23
2019-05-20T07:06:22.761Z,1.20
2019-05-20T07:09:10.088Z,1.13
2019-05-20T07:12:04.020Z,1.20
2019-05-20T07:14:51.441Z,1.10
2019-05-20T07:17:46.042Z,1.40
2019-05-20T07:20:33.499Z,1.27
2019-05-20T07:23:27.634Z,1.40
2019-05-20T07:26:14.829Z,1.20
2019-05-20T07:29:08.628Z,1.27
2019-05-20T07:31:56.090Z,1.20
2019-05-20T07:34:57.051Z,1.40
2019-05-20T07:37:44.396Z,1.30
2019-05-20T07:40:38.576Z,1.20
2019-05-20T07:43:25.905Z,1.10
2019-05-20T07:46:19.965Z,1.13
2019-05-20T07:49:07.574Z,1.30
2019-05-20T07:52:03.112Z,1.40
2019-05-20T07:54:50.450Z,1.37
2019-05-20T07:57:45.208Z,1.27
2019-05-20T08:00:32.394Z,0.97
2019-05-20T08:03:28.339Z,1.00
2019-05-20T08:06:14.926Z,1.40
2019-05-20T08:09:09.604Z,1.27
2019-05-20T08:11:56.948Z,1.20
2019-05-20T08:14:53.778Z,1.37
2019-05-20T08:17:50.113Z,1.00
2019-05-20T08:20:46.791Z,1.20
2019-05-20T08:23:34.124Z,1.10
2019-05-20T08:26:28.572Z,1.10
2019-05-20T08:29:16.170Z,1.30
2019-05-20T08:32:10.089Z,1.20
2019-05-20T08:34:58.529Z,0.97
2019-05-20T08:37:59.458Z,1.00
2019-05-20T08:40:48.786Z,0.97
2019-05-20T08:43:42.339Z,1.40
2019-05-20T08:46:29.841Z,1.00
2019-05-20T08:49:23.840Z,1.00
2019-05-20T08:52:11.621Z,1.10
2019-05-20T08:55:05.925Z,1.10
2019-05-20T08:57:52.961Z,1.30
2019-05-20T09:00:48.993Z,1.10
2019-05-20T09:03:36.502Z,1.00
2019-05-20T09:06:30.968Z,1.00
2019-05-20T09:09:18.175Z,1.20
2019-05-20T09:12:12.359Z,1.40
2019-05-20T09:15:01.817Z,1.50
2019-05-20T09:17:56.249Z,1.30
2019-05-20T09:20:43.974Z,1.10
2019-05-20T09:23:41.018Z,0.93
2019-05-20T09:26:28.359Z,1.10
2019-05-20T09:29:22.242Z,0.90
2019-05-20T09:32:19.217Z,1.20
2019-05-20T09:35:14.343Z,1.00
2019-05-20T09:38:15.970Z,0.77
2019-05-20T09:41:04.156Z,1.20
2019-05-20T09:43:51.177Z,0.90
2019-05-20T09:46:45.287Z,1.10
2019-05-20T09:49:32.606Z,1.20
2019-05-20T09:52:27.652Z,1.30
2019-05-20T09:55:15.095Z,1.00
2019-05-20T09:58:11.735Z,1.20
2019-05-20T10:00:59.408Z,0.90
2019-05-20T10:03:54.032Z,0.93
2019-05-20T10:06:41.450Z,1.00
2019-05-20T10:09:36.031Z,1.00
2019-05-20T10:12:23.506Z,1.20
2019-05-20T10:15:18.237Z,1.10
2019-05-20T10:18:08.479Z,1.10
2019-05-20T10:21:03.100Z,1.10
2019-05-20T10:23:50.271Z,1.10
2019-05-20T10:26:44.647Z,1.03
2019-05-20T10:29:31.580Z,0.90
2019-05-20T10:32:28.207Z,1.10
2019-05-20T10:35:22.555Z,1.00
2019-05-20T10:38:17.028Z,1.07
2019-05-20T10:41:04.475Z,1.10
2019-05-20T10:44:05.940Z,1.30
2019-05-20T10:46:53.455Z,1.20
2019-05-20T10:49:47.759Z,1.10
2019-05-20T10:52:35.251Z,1.07
2019-05-20T10:55:29.761Z,0.93
2019-05-20T10:58:17.410Z,1.20
2019-05-20T11:01:12.898Z,0.93
2019-05-20T11:04:00.112Z,1.30
2019-05-20T11:06:54.195Z,1.10
2019-05-20T11:09:41.416Z,1.00
2019-05-20T11:12:41.221Z,1.37
2019-05-20T11:15:28.673Z,1.10
2019-05-20T11:18:26.995Z,1.20
2019-05-20T11:21:17.267Z,1.03
2019-05-20T11:24:11.543Z,1.30
2019-05-20T11:26:58.702Z,1.30
2019-05-20T11:29:52.739Z,1.00
2019-05-20T11:32:40.256Z,1.17
2019-05-20T11:35:33.897Z,1.43
2019-05-20T11:38:27.380Z,1.03
2019-05-20T11:41:52.166Z,1.03
2019-05-20T11:44:16.651Z,1.10
2019-05-20T11:47:18.032Z,1.20
2019-05-20T11:50:06.395Z,1.00
2019-05-20T11:53:01.124Z,1.30
2019-05-20T11:55:48.114Z,1.50
2019-05-20T11:58:44.169Z,1.47
2019-05-20T12:01:31.721Z,1.50
2019-05-20T12:04:30.501Z,1.07
2019-05-20T12:07:18.077Z,1.20
2019-05-20T12:10:13.205Z,1.30
2019-05-20T12:13:00.630Z,1.00
2019-05-20T12:15:57.226Z,1.00
2019-05-20T12:18:45.307Z,1.00
2019-05-20T12:21:39.858Z,1.13
2019-05-20T12:24:27.378Z,1.13
2019-05-20T12:27:20.972Z,1.10
2019-05-20T12:30:08.729Z,1.10
2019-05-20T12:33:17.991Z,1.20
2019-05-20T12:35:51.775Z,1.40
2019-05-20T12:38:45.689Z,1.20
2019-05-20T12:41:33.022Z,1.20
2019-05-20T12:44:26.813Z,1.30
2019-05-20T12:47:14.325Z,1.23
2019-05-20T12:50:18.356Z,1.10
2019-05-20T12:53:08.659Z,1.20
2019-05-20T12:56:09.697Z,1.30
2019-05-20T12:58:56.953Z,1.00
2019-05-20T13:01:51.653Z,1.30
2019-05-20T13:04:38.901Z,1.30
2019-05-20T13:07:33.590Z,1.30
2019-05-20T13:10:31.729Z,1.03
2019-05-20T13:13:16.205Z,1.53
2019-05-20T13:16:04.003Z,1.30
2019-05-20T13:18:57.928Z,1.53
2019-05-20T13:21:45.083Z,1.33
2019-05-20T13:24:39.247Z,1.50
2019-05-20T13:27:29.733Z,1.40
2019-05-20T13:30:25.219Z,1.30
2019-05-20T13:33:12.817Z,1.40
2019-05-20T13:36:06.413Z,1.20
2019-05-20T13:38:53.846Z,1.20
2019-05-20T13:41:55.326Z,1.63
2019-05-20T13:44:42.742Z,1.30
2019-05-20T13:47:37.729Z,1.40
2019-05-20T13:50:25.299Z,1.40
2019-05-20T13:53:27.561Z,1.10
2019-05-20T13:56:14.664Z,1.40
2019-05-20T13:59:08.598Z,1.43
2019-05-20T14:01:58.750Z,1.53
2019-05-20T14:04:55.739Z,1.40
2019-05-20T14:07:43.364Z,1.40
2019-05-20T14:10:37.817Z,1.43
2019-05-20T14:13:24.831Z,1.20
2019-05-20T14:16:19.145Z,1.73
2019-05-20T14:19:16.157Z,1.33
2019-05-20T14:22:12.978Z,1.50
2019-05-20T14:24:59.454Z,1.40
2019-05-20T14:27:53.356Z,1.37
2019-05-20T14:30:40.483Z,1.53
2019-05-20T14:33:37.144Z,1.40
2019-05-20T14:36:38.823Z,1.40
2019-05-20T14:39:22.152Z,1.50
2019-05-20T14:42:09.228Z,1.67
2019-05-20T14:45:03.336Z,1.57
2019-05-20T14:47:50.843Z,1.50
2019-05-20T14:50:44.994Z,1.60
2019-05-20T14:53:32.424Z,1.40
2019-05-20T14:56:36.558Z,1.40
2019-05-20T14:59:24.042Z,1.50
2019-05-20T15:02:18.299Z,1.30
2019-05-20T15:05:06.335Z,1.50
2019-05-20T15:08:01.261Z,1.60
2019-05-20T15:10:51.898Z,1.67
2019-05-20T15:13:47.861Z,1.40
2019-05-20T15:16:34.974Z,1.40
2019-05-20T15:19:28.975Z,1.40
2019-05-20T15:22:20.608Z,1.40
2019-05-20T15:25:14.892Z,1.50
2019-05-20T15:28:04.002Z,1.50
2019-05-20T15:30:57.903Z,1.47
2019-05-20T15:33:51.038Z,1.50
2019-05-20T15:36:45.730Z,1.40
2019-05-20T15:39:39.845Z,1.80
2019-05-20T15:42:34.236Z,1.87
2019-05-20T15:45:39.409Z,1.70
2019-05-20T15:48:33.958Z,1.53
2019-05-20T15:51:22.604Z,1.77
2019-05-20T15:54:17.273Z,1.60
2019-05-20T15:57:04.950Z,1.90
2019-05-20T16:00:12.217Z,1.70
2019-05-20T16:02:59.744Z,1.70
2019-05-20T16:05:54.567Z,1.60
2019-05-20T16:08:42.172Z,1.70
2019-05-20T16:11:51.769Z,1.97
2019-05-20T16:14:37.909Z,1.57
2019-05-20T16:17:31.298Z,1.70
2019-05-20T16:20:18.765Z,1.50
2019-05-20T16:23:15.846Z,1.60
2019-05-20T16:26:03.234Z,1.70
2019-05-20T16:28:57.414Z,1.60
2019-05-20T16:31:44.854Z,1.57
2019-05-20T16:34:38.802Z,1.30
2019-05-20T16:37:35.579Z,1.77
2019-05-20T16:40:29.518Z,1.50
2019-05-20T16:43:16.573Z,1.30
2019-05-20T16:46:11.632Z,1.70
2019-05-20T16:48:58.533Z,1.60
2019-05-20T16:51:52.896Z,1.63
2019-05-20T16:54:40.362Z,1.73
2019-05-20T16:57:35.057Z,1.60
2019-05-20T17:00:31.577Z,1.30
2019-05-20T17:03:24.466Z,1.10
2019-05-20T17:06:11.879Z,1.50
2019-05-20T17:09:05.935Z,1.40
2019-05-20T17:11:53.045Z,1.40
2019-05-20T17:14:47.552Z,1.40
2019-05-20T17:17:34.777Z,1.40
2019-05-20T17:20:29.567Z,1.50
2019-05-20T17:23:16.579Z,1.60
2019-05-20T17:26:11.685Z,1.33
2019-05-20T17:28:58.922Z,1.60
2019-05-20T17:31:53.531Z,1.70
2019-05-20T17:34:42.041Z,1.53
2019-05-20T17:37:36.354Z,1.53
2019-05-20T17:40:26.510Z,1.27
2019-05-20T17:43:20.934Z,1.50
2019-05-20T17:46:08.113Z,1.50
2019-05-20T17:49:02.559Z,1.27
2019-05-20T17:51:49.883Z,1.80
2019-05-20T17:54:43.715Z,1.33
2019-05-20T17:57:30.818Z,1.70
2019-05-20T18:00:26.491Z,1.63
2019-05-20T18:03:14.085Z,1.53
2019-05-20T18:06:15.722Z,1.57
2019-05-20T18:09:03.309Z,1.40
2019-05-20T18:12:00.302Z,1.73
2019-05-20T18:14:49.279Z,1.40
2019-05-20T18:17:50.323Z,1.57
2019-05-20T18:20:37.558Z,1.50
2019-05-20T18:23:31.637Z,1.60
2019-05-20T18:26:18.887Z,1.90
2019-05-20T18:29:13.168Z,1.70
2019-05-20T18:32:00.169Z,1.70
2019-05-20T18:34:54.122Z,1.57
2019-05-20T18:37:41.455Z,1.60
2019-05-20T18:40:40.064Z,1.50
2019-05-20T18:43:30.373Z,1.43
2019-05-20T18:46:24.390Z,1.60
2019-05-20T18:49:50.066Z,1.73
2019-05-20T18:52:23.638Z,1.60
2019-05-20T18:55:10.631Z,1.60
2019-05-20T18:58:05.110Z,1.77
2019-05-20T19:00:52.146Z,1.63
2019-05-20T19:03:46.352Z,1.80
2019-05-20T19:06:34.079Z,1.70
2019-05-20T19:09:35.131Z,1.80
2019-05-20T19:12:22.547Z,1.70
2019-05-20T19:15:16.921Z,1.50
2019-05-20T19:18:04.066Z,1.70
2019-05-20T19:20:59.868Z,1.60
2019-05-20T19:23:48.719Z,1.77
2019-05-20T19:26:42.620Z,1.90
2019-05-20T19:29:32.319Z,1.60
2019-05-20T19:32:27.420Z,1.83
2019-05-20T19:35:14.821Z,1.80
2019-05-20T19:38:09.399Z,1.83
2019-05-20T19:40:58.758Z,1.70
2019-05-20T19:43:51.988Z,1.70
2019-05-20T19:47:04.973Z,1.70
2019-05-20T19:49:38.359Z,1.90
2019-05-20T19:52:25.561Z,1.53
2019-05-20T19:55:21.285Z,2.00
2019-05-20T19:58:08.640Z,2.03
2019-05-20T20:01:04.119Z,1.80
2019-05-20T20:03:53.133Z,1.80
2019-05-20T20:06:47.701Z,1.90
2019-05-20T20:09:37.758Z,1.67
2019-05-20T20:12:39.113Z,1.90
2019-05-20T20:15:26.209Z,1.70
2019-05-20T20:18:20.665Z,1.90
2019-05-20T20:21:09.389Z,1.97
2019-05-20T20:24:04.905Z,1.90
2019-05-20T20:26:51.816Z,2.10
2019-05-20T20:29:48.958Z,2.13
2019-05-20T20:32:38.269Z,1.70
2019-05-20T20:35:38.216Z,1.87
2019-05-20T20:38:19.708Z,1.83
2019-05-20T20:41:14.341Z,1.57
2019-05-20T20:44:08.514Z,1.90
2019-05-20T20:47:03.090Z,2.17
2019-05-20T20:49:50.069Z,1.90
2019-05-20T20:52:59.375Z,1.90
2019-05-20T20:55:53.623Z,1.90
2019-05-20T20:58:47.687Z,2.10
2019-05-20T21:01:35.086Z,1.97
2019-05-20T21:04:28.869Z,1.87
2019-05-20T21:07:16.362Z,1.77
2019-05-20T21:10:10.968Z,1.70
2019-05-20T21:13:04.698Z,1.57
2019-05-20T21:16:00.262Z,1.97
2019-05-20T21:18:47.789Z,1.50
2019-05-20T21:21:45.006Z,1.67
2019-05-20T21:24:32.305Z,1.60
2019-05-20T21:27:28.106Z,1.37
2019-05-20T21:30:17.187Z,1.53
2019-05-20T21:33:12.134Z,1.70
2019-05-20T21:35:59.880Z,1.50
2019-05-20T21:38:53.526Z,1.43
2019-05-20T21:41:41.158Z,1.33
2019-05-20T21:44:35.956Z,1.43
2019-05-20T21:47:23.088Z,1.30
2019-05-20T21:50:17.213Z,1.57
2019-05-20T21:53:05.956Z,1.53
2019-05-20T21:56:00.325Z,1.40
2019-05-20T21:58:47.831Z,1.43
2019-05-20T22:01:41.620Z,1.23
2019-05-20T22:04:28.777Z,1.30
2019-05-20T22:07:29.392Z,0.97
2019-05-20T22:10:16.703Z,1.30
2019-05-20T22:13:10.959Z,1.20
2019-05-20T22:16:04.545Z,1.50
2019-05-20T22:18:58.405Z,1.13
2019-05-20T22:21:49.837Z,1.43
2019-05-20T22:24:43.700Z,0.90
2019-05-20T22:27:30.838Z,1.00
2019-05-20T22:30:25.630Z,1.50
2019-05-20T22:33:12.787Z,1.10
2019-05-20T22:36:08.639Z,1.20
2019-05-20T22:38:55.746Z,1.10
2019-05-20T22:41:50.479Z,1.03
2019-05-20T22:44:42.285Z,1.20
2019-05-20T22:47:35.868Z,1.00
2019-05-20T22:50:23.203Z,1.10
2019-05-20T22:53:17.472Z,1.43
2019-05-20T22:56:04.974Z,0.93
2019-05-20T22:58:59.055Z,1.10
2019-05-20T23:01:46.216Z,1.03
2019-05-20T23:04:44.127Z,0.90
2019-05-20T23:07:31.385Z,1.20
2019-05-20T23:10:25.914Z,1.10
2019-05-20T23:13:13.289Z,0.97
2019-05-20T23:16:09.235Z,1.03
2019-05-20T23:19:02.797Z,0.93
2019-05-20T23:21:56.940Z,1.30
2019-05-20T23:24:44.115Z,1.60
2019-05-20T23:27:38.714Z,1.30
2019-05-20T23:30:26.202Z,1.10
2019-05-20T23:33:20.177Z,1.27
2019-05-20T23:36:07.702Z,1.00
2019-05-20T23:39:11.611Z,0.90
2019-05-20T23:41:58.709Z,1.00
2019-05-20T23:44:53.316Z,0.90
2019-05-20T23:47:40.582Z,0.83
2019-05-20T23:50:34.392Z,0.93
2019-05-20T23:53:21.570Z,1.07
2019-05-20T23:56:16.236Z,0.90
2019-05-20T23:59:06.218Z,1.17
